sensor_id;sensor_type;location;lat;lon;timestamp;P1;durP1;ratioP1;P2;durP2;ratioP2
29934;SDS011;19905;53.370;-6.314;2024-03-08T00:01:13;79.95;;;34.60;;
29934;SDS011;19905;53.370;-6.314;2024-03-08T00:03:43;72.00;;;32.63;;
29934;SDS011;19905;53.370;-6.314;2024-03-08T00:06:13;68.53;;;31.90;;
29934;SDS011;19905;53.370;-6.314;2024-03-08T00:08:41;66.55;;;30.02;;
29934;SDS011;19905;53.370;-6.314;2024-03-08T00:11:09;70.60;;;31.58;;
29934;SDS011;19905;53.370;-6.314;2024-03-08T00:13:38;80.78;;;32.25;;
29934;SDS011;19905;53.370;-6.314;2024-03-08T00:16:06;74.45;;;32.28;;
29934;SDS011;19905;53.370;-6.314;2024-03-08T00:18:36;67.60;;;30.95;;
29934;SDS011;19905;53.370;-6.314;2024-03-08T00:21:04;78.70;;;31.88;;
29934;SDS011;19905;53.370;-6.314;2024-03-08T00:23:34;74.18;;;31.08;;
29934;SDS011;19905;53.370;-6.314;2024-03-08T00:26:03;69.60;;;30.27;;
29934;SDS011;19905;53.370;-6.314;2024-03-08T00:28:31;72.13;;;29.70;;
29934;SDS011;19905;53.370;-6.314;2024-03-08T00:31:01;74.47;;;30.17;;
29934;SDS011;19905;53.370;-6.314;2024-03-08T00:33:29;66.22;;;28.88;;
29934;SDS011;19905;53.370;-6.314;2024-03-08T00:35:57;62.35;;;24.40;;
29934;SDS011;19905;53.370;-6.314;2024-03-08T00:38:26;62.40;;;26.60;;
29934;SDS011;19905;53.370;-6.314;2024-03-08T00:40:56;59.42;;;27.13;;
29934;SDS011;19905;53.370;-6.314;2024-03-08T00:43:24;66.47;;;27.73;;
29934;SDS011;19905;53.370;-6.314;2024-03-08T00:45:53;60.88;;;27.27;;
29934;SDS011;19905;53.370;-6.314;2024-03-08T00:48:21;61.72;;;26.83;;
29934;SDS011;19905;53.370;-6.314;2024-03-08T00:50:50;58.90;;;26.08;;
29934;SDS011;19905;53.370;-6.314;2024-03-08T00:53:18;68.07;;;26.20;;
29934;SDS011;19905;53.370;-6.314;2024-03-08T00:55:47;57.42;;;25.58;;
29934;SDS011;19905;53.370;-6.314;2024-03-08T00:58:17;57.88;;;25.80;;
29934;SDS011;19905;53.370;-6.314;2024-03-08T01:00:46;57.33;;;25.20;;
29934;SDS011;19905;53.370;-6.314;2024-03-08T01:03:14;65.55;;;27.33;;
29934;SDS011;19905;53.370;-6.314;2024-03-08T01:05:42;63.95;;;26.77;;
29934;SDS011;19905;53.370;-6.314;2024-03-08T01:08:10;60.10;;;26.85;;
29934;SDS011;19905;53.370;-6.314;2024-03-08T01:10:39;66.75;;;26.95;;
29934;SDS011;19905;53.370;-6.314;2024-03-08T01:13:07;65.20;;;28.13;;
29934;SDS011;19905;53.370;-6.314;2024-03-08T01:15:38;63.03;;;28.27;;
29934;SDS011;19905;53.370;-6.314;2024-03-08T01:18:08;65.35;;;28.58;;
29934;SDS011;19905;53.370;-6.314;2024-03-08T01:20:39;72.80;;;27.58;;
29934;SDS011;19905;53.370;-6.314;2024-03-08T01:23:08;66.53;;;26.60;;
29934;SDS011;19905;53.370;-6.314;2024-03-08T01:25:37;56.88;;;28.67;;
29934;SDS011;19905;53.370;-6.314;2024-03-08T01:28:05;61.42;;;27.00;;
29934;SDS011;19905;53.370;-6.314;2024-03-08T01:30:34;63.70;;;27.75;;
29934;SDS011;19905;53.370;-6.314;2024-03-08T01:33:05;72.93;;;28.73;;
29934;SDS011;19905;53.370;-6.314;2024-03-08T01:35:34;65.80;;;28.83;;
29934;SDS011;19905;53.370;-6.314;2024-03-08T01:38:02;61.75;;;27.17;;
29934;SDS011;19905;53.370;-6.314;2024-03-08T01:40:32;63.58;;;27.15;;
29934;SDS011;19905;53.370;-6.314;2024-03-08T01:43:15;64.57;;;25.92;;
29934;SDS011;19905;53.370;-6.314;2024-03-08T01:45:43;65.50;;;25.70;;
29934;SDS011;19905;53.370;-6.314;2024-03-08T01:48:13;61.92;;;26.73;;
29934;SDS011;19905;53.370;-6.314;2024-03-08T01:50:42;63.22;;;26.15;;
29934;SDS011;19905;53.370;-6.314;2024-03-08T01:53:11;62.35;;;26.33;;
29934;SDS011;19905;53.370;-6.314;2024-03-08T01:55:42;61.70;;;26.75;;
29934;SDS011;19905;53.370;-6.314;2024-03-08T01:58:10;62.15;;;26.17;;
29934;SDS011;19905;53.370;-6.314;2024-03-08T02:00:39;57.20;;;25.85;;
29934;SDS011;19905;53.370;-6.314;2024-03-08T02:03:08;61.83;;;26.95;;
29934;SDS011;19905;53.370;-6.314;2024-03-08T02:05:38;61.70;;;26.67;;
29934;SDS011;19905;53.370;-6.314;2024-03-08T02:08:08;61.13;;;26.50;;
29934;SDS011;19905;53.370;-6.314;2024-03-08T02:10:39;54.70;;;25.88;;
29934;SDS011;19905;53.370;-6.314;2024-03-08T02:13:08;60.47;;;25.98;;
29934;SDS011;19905;53.370;-6.314;2024-03-08T02:15:50;57.50;;;25.30;;
29934;SDS011;19905;53.370;-6.314;2024-03-08T02:18:19;57.85;;;26.23;;
29934;SDS011;19905;53.370;-6.314;2024-03-08T02:20:49;65.60;;;26.52;;
29934;SDS011;19905;53.370;-6.314;2024-03-08T02:23:18;60.08;;;26.17;;
29934;SDS011;19905;53.370;-6.314;2024-03-08T02:25:46;60.70;;;26.40;;
29934;SDS011;19905;53.370;-6.314;2024-03-08T02:28:15;59.65;;;25.63;;
29934;SDS011;19905;53.370;-6.314;2024-03-08T02:30:45;59.15;;;25.80;;
29934;SDS011;19905;53.370;-6.314;2024-03-08T02:33:15;58.40;;;24.98;;
29934;SDS011;19905;53.370;-6.314;2024-03-08T02:35:45;54.78;;;25.60;;
29934;SDS011;19905;53.370;-6.314;2024-03-08T02:38:15;52.72;;;24.65;;
29934;SDS011;19905;53.370;-6.314;2024-03-08T02:40:44;56.92;;;24.95;;
29934;SDS011;19905;53.370;-6.314;2024-03-08T02:43:12;52.83;;;24.33;;
29934;SDS011;19905;53.370;-6.314;2024-03-08T02:45:41;57.70;;;25.30;;
29934;SDS011;19905;53.370;-6.314;2024-03-08T02:48:11;57.08;;;23.35;;
29934;SDS011;19905;53.370;-6.314;2024-03-08T02:50:40;56.42;;;23.50;;
29934;SDS011;19905;53.370;-6.314;2024-03-08T02:53:10;55.65;;;25.15;;
29934;SDS011;19905;53.370;-6.314;2024-03-08T02:55:40;54.30;;;24.08;;
29934;SDS011;19905;53.370;-6.314;2024-03-08T02:58:09;50.53;;;22.52;;
29934;SDS011;19905;53.370;-6.314;2024-03-08T03:00:38;55.65;;;23.58;;
29934;SDS011;19905;53.370;-6.314;2024-03-08T03:03:07;56.10;;;25.33;;
29934;SDS011;19905;53.370;-6.314;2024-03-08T03:05:36;50.65;;;23.48;;
29934;SDS011;19905;53.370;-6.314;2024-03-08T03:08:05;53.38;;;22.98;;
29934;SDS011;19905;53.370;-6.314;2024-03-08T03:10:36;59.42;;;22.35;;
29934;SDS011;19905;53.370;-6.314;2024-03-08T03:13:06;55.55;;;23.67;;
29934;SDS011;19905;53.370;-6.314;2024-03-08T03:15:35;54.17;;;22.42;;
29934;SDS011;19905;53.370;-6.314;2024-03-08T03:18:05;51.03;;;22.40;;
29934;SDS011;19905;53.370;-6.314;2024-03-08T03:20:35;45.65;;;20.95;;
29934;SDS011;19905;53.370;-6.314;2024-03-08T03:23:08;51.20;;;22.55;;
29934;SDS011;19905;53.370;-6.314;2024-03-08T03:25:42;52.00;;;22.90;;
29934;SDS011;19905;53.370;-6.314;2024-03-08T03:28:14;48.38;;;21.60;;
29934;SDS011;19905;53.370;-6.314;2024-03-08T03:30:45;45.72;;;22.25;;
29934;SDS011;19905;53.370;-6.314;2024-03-08T03:33:14;46.80;;;21.63;;
29934;SDS011;19905;53.370;-6.314;2024-03-08T03:35:43;51.15;;;22.52;;
29934;SDS011;19905;53.370;-6.314;2024-03-08T03:38:12;45.80;;;20.20;;
29934;SDS011;19905;53.370;-6.314;2024-03-08T03:40:41;51.60;;;20.73;;
29934;SDS011;19905;53.370;-6.314;2024-03-08T03:43:11;47.47;;;20.30;;
29934;SDS011;19905;53.370;-6.314;2024-03-08T03:45:41;47.17;;;20.33;;
29934;SDS011;19905;53.370;-6.314;2024-03-08T03:48:10;46.78;;;18.80;;
29934;SDS011;19905;53.370;-6.314;2024-03-08T03:50:38;45.60;;;19.63;;
29934;SDS011;19905;53.370;-6.314;2024-03-08T03:53:07;46.22;;;19.45;;
29934;SDS011;19905;53.370;-6.314;2024-03-08T03:55:37;43.13;;;19.42;;
29934;SDS011;19905;53.370;-6.314;2024-03-08T03:58:07;46.60;;;19.67;;
29934;SDS011;19905;53.370;-6.314;2024-03-08T04:00:38;40.67;;;19.30;;
29934;SDS011;19905;53.370;-6.314;2024-03-08T04:03:07;49.95;;;20.23;;
29934;SDS011;19905;53.370;-6.314;2024-03-08T04:05:36;41.70;;;20.27;;
29934;SDS011;19905;53.370;-6.314;2024-03-08T04:08:04;43.20;;;19.05;;
29934;SDS011;19905;53.370;-6.314;2024-03-08T04:10:33;44.80;;;19.63;;
29934;SDS011;19905;53.370;-6.314;2024-03-08T04:13:03;42.30;;;19.83;;
29934;SDS011;19905;53.370;-6.314;2024-03-08T04:15:31;42.35;;;20.38;;
29934;SDS011;19905;53.370;-6.314;2024-03-08T04:17:59;51.47;;;20.20;;
29934;SDS011;19905;53.370;-6.314;2024-03-08T04:20:30;49.97;;;21.13;;
29934;SDS011;19905;53.370;-6.314;2024-03-08T04:22:59;44.05;;;19.67;;
29934;SDS011;19905;53.370;-6.314;2024-03-08T04:25:27;52.78;;;21.33;;
29934;SDS011;19905;53.370;-6.314;2024-03-08T04:27:56;47.42;;;19.77;;
29934;SDS011;19905;53.370;-6.314;2024-03-08T04:30:24;45.40;;;21.08;;
29934;SDS011;19905;53.370;-6.314;2024-03-08T04:32:55;40.75;;;19.60;;
29934;SDS011;19905;53.370;-6.314;2024-03-08T04:35:24;50.90;;;19.00;;
29934;SDS011;19905;53.370;-6.314;2024-03-08T04:37:53;49.45;;;20.15;;
29934;SDS011;19905;53.370;-6.314;2024-03-08T04:40:24;40.20;;;18.27;;
29934;SDS011;19905;53.370;-6.314;2024-03-08T04:42:52;50.75;;;20.30;;
29934;SDS011;19905;53.370;-6.314;2024-03-08T04:45:21;42.75;;;19.60;;
29934;SDS011;19905;53.370;-6.314;2024-03-08T04:47:49;47.50;;;19.27;;
29934;SDS011;19905;53.370;-6.314;2024-03-08T04:50:19;41.58;;;19.20;;
29934;SDS011;19905;53.370;-6.314;2024-03-08T04:52:47;46.92;;;19.67;;
29934;SDS011;19905;53.370;-6.314;2024-03-08T04:55:18;46.47;;;18.55;;
29934;SDS011;19905;53.370;-6.314;2024-03-08T04:57:48;45.90;;;18.65;;
29934;SDS011;19905;53.370;-6.314;2024-03-08T05:00:16;50.42;;;19.45;;
29934;SDS011;19905;53.370;-6.314;2024-03-08T05:02:46;42.33;;;17.83;;
29934;SDS011;19905;53.370;-6.314;2024-03-08T05:05:14;43.45;;;19.02;;
29934;SDS011;19905;53.370;-6.314;2024-03-08T05:07:42;41.22;;;18.98;;
29934;SDS011;19905;53.370;-6.314;2024-03-08T05:10:13;44.45;;;18.58;;
29934;SDS011;19905;53.370;-6.314;2024-03-08T05:12:45;47.65;;;19.15;;
29934;SDS011;19905;53.370;-6.314;2024-03-08T05:15:14;46.63;;;19.23;;
29934;SDS011;19905;53.370;-6.314;2024-03-08T05:17:43;45.85;;;18.85;;
29934;SDS011;19905;53.370;-6.314;2024-03-08T05:20:12;46.60;;;19.95;;
29934;SDS011;19905;53.370;-6.314;2024-03-08T05:22:40;46.65;;;19.15;;
29934;SDS011;19905;53.370;-6.314;2024-03-08T05:25:08;51.70;;;19.50;;
29934;SDS011;19905;53.370;-6.314;2024-03-08T05:27:37;46.47;;;19.20;;
29934;SDS011;19905;53.370;-6.314;2024-03-08T05:30:07;50.30;;;20.55;;
29934;SDS011;19905;53.370;-6.314;2024-03-08T05:32:41;43.67;;;19.23;;
29934;SDS011;19905;53.370;-6.314;2024-03-08T05:35:11;47.53;;;18.65;;
29934;SDS011;19905;53.370;-6.314;2024-03-08T05:37:43;42.47;;;19.20;;
29934;SDS011;19905;53.370;-6.314;2024-03-08T05:40:12;44.08;;;19.73;;
29934;SDS011;19905;53.370;-6.314;2024-03-08T05:42:44;43.85;;;20.35;;
29934;SDS011;19905;53.370;-6.314;2024-03-08T05:45:14;48.60;;;20.45;;
29934;SDS011;19905;53.370;-6.314;2024-03-08T05:47:43;46.10;;;20.17;;
29934;SDS011;19905;53.370;-6.314;2024-03-08T05:50:11;52.10;;;21.17;;
29934;SDS011;19905;53.370;-6.314;2024-03-08T05:52:39;50.67;;;21.40;;
29934;SDS011;19905;53.370;-6.314;2024-03-08T05:55:08;50.80;;;21.25;;
29934;SDS011;19905;53.370;-6.314;2024-03-08T05:57:37;48.38;;;20.35;;
29934;SDS011;19905;53.370;-6.314;2024-03-08T06:00:07;50.75;;;20.83;;
29934;SDS011;19905;53.370;-6.314;2024-03-08T06:02:39;47.17;;;19.73;;
29934;SDS011;19905;53.370;-6.314;2024-03-08T06:05:09;50.30;;;20.15;;
29934;SDS011;19905;53.370;-6.314;2024-03-08T06:07:37;46.25;;;19.75;;
29934;SDS011;19905;53.370;-6.314;2024-03-08T06:10:08;44.35;;;20.58;;
29934;SDS011;19905;53.370;-6.314;2024-03-08T06:12:39;48.35;;;20.27;;
29934;SDS011;19905;53.370;-6.314;2024-03-08T06:15:09;57.50;;;21.30;;
29934;SDS011;19905;53.370;-6.314;2024-03-08T06:17:43;46.13;;;21.42;;
29934;SDS011;19905;53.370;-6.314;2024-03-08T06:20:11;49.05;;;21.88;;
29934;SDS011;19905;53.370;-6.314;2024-03-08T06:22:41;47.30;;;21.17;;
29934;SDS011;19905;53.370;-6.314;2024-03-08T06:25:09;45.15;;;19.92;;
29934;SDS011;19905;53.370;-6.314;2024-03-08T06:27:38;43.70;;;20.35;;
29934;SDS011;19905;53.370;-6.314;2024-03-08T06:30:07;43.25;;;20.70;;
29934;SDS011;19905;53.370;-6.314;2024-03-08T06:32:36;47.58;;;20.23;;
29934;SDS011;19905;53.370;-6.314;2024-03-08T06:35:07;46.22;;;21.48;;
29934;SDS011;19905;53.370;-6.314;2024-03-08T06:37:37;46.63;;;20.75;;
29934;SDS011;19905;53.370;-6.314;2024-03-08T06:40:06;48.53;;;20.60;;
29934;SDS011;19905;53.370;-6.314;2024-03-08T06:42:37;46.30;;;20.67;;
29934;SDS011;19905;53.370;-6.314;2024-03-08T06:45:05;50.65;;;21.70;;
29934;SDS011;19905;53.370;-6.314;2024-03-08T06:47:36;55.70;;;22.35;;
29934;SDS011;19905;53.370;-6.314;2024-03-08T06:50:05;46.58;;;21.13;;
29934;SDS011;19905;53.370;-6.314;2024-03-08T06:52:34;49.22;;;21.45;;
29934;SDS011;19905;53.370;-6.314;2024-03-08T06:55:03;53.15;;;22.42;;
29934;SDS011;19905;53.370;-6.314;2024-03-08T06:57:32;49.92;;;22.02;;
29934;SDS011;19905;53.370;-6.314;2024-03-08T07:00:00;51.50;;;22.23;;
29934;SDS011;19905;53.370;-6.314;2024-03-08T07:02:29;53.30;;;22.65;;
29934;SDS011;19905;53.370;-6.314;2024-03-08T07:04:59;47.60;;;22.52;;
29934;SDS011;19905;53.370;-6.314;2024-03-08T07:07:28;50.25;;;23.05;;
29934;SDS011;19905;53.370;-6.314;2024-03-08T07:09:58;52.63;;;22.48;;
29934;SDS011;19905;53.370;-6.314;2024-03-08T07:12:27;54.30;;;22.83;;
29934;SDS011;19905;53.370;-6.314;2024-03-08T07:14:55;57.97;;;23.65;;
29934;SDS011;19905;53.370;-6.314;2024-03-08T07:17:23;57.40;;;24.23;;
29934;SDS011;19905;53.370;-6.314;2024-03-08T07:19:52;60.63;;;24.65;;
29934;SDS011;19905;53.370;-6.314;2024-03-08T07:22:21;61.28;;;23.85;;
29934;SDS011;19905;53.370;-6.314;2024-03-08T07:24:50;56.55;;;23.73;;
29934;SDS011;19905;53.370;-6.314;2024-03-08T07:27:39;53.65;;;23.88;;
29934;SDS011;19905;53.370;-6.314;2024-03-08T07:30:07;59.25;;;24.08;;
29934;SDS011;19905;53.370;-6.314;2024-03-08T07:32:37;52.97;;;23.60;;
29934;SDS011;19905;53.370;-6.314;2024-03-08T07:35:06;55.22;;;24.77;;
29934;SDS011;19905;53.370;-6.314;2024-03-08T07:37:36;52.30;;;23.70;;
29934;SDS011;19905;53.370;-6.314;2024-03-08T07:40:04;56.15;;;22.90;;
29934;SDS011;19905;53.370;-6.314;2024-03-08T07:42:33;53.35;;;23.55;;
29934;SDS011;19905;53.370;-6.314;2024-03-08T07:45:04;53.38;;;23.98;;
29934;SDS011;19905;53.370;-6.314;2024-03-08T07:47:34;53.13;;;23.63;;
29934;SDS011;19905;53.370;-6.314;2024-03-08T07:50:03;50.28;;;22.15;;
29934;SDS011;19905;53.370;-6.314;2024-03-08T07:52:32;56.50;;;23.83;;
29934;SDS011;19905;53.370;-6.314;2024-03-08T07:55:00;52.72;;;22.55;;
29934;SDS011;19905;53.370;-6.314;2024-03-08T07:57:29;59.10;;;23.15;;
29934;SDS011;19905;53.370;-6.314;2024-03-08T07:59:57;52.20;;;21.58;;
29934;SDS011;19905;53.370;-6.314;2024-03-08T08:02:27;57.47;;;22.23;;
29934;SDS011;19905;53.370;-6.314;2024-03-08T08:04:56;56.72;;;22.48;;
29934;SDS011;19905;53.370;-6.314;2024-03-08T08:07:26;50.80;;;21.83;;
29934;SDS011;19905;53.370;-6.314;2024-03-08T08:09:55;49.97;;;21.38;;
29934;SDS011;19905;53.370;-6.314;2024-03-08T08:12:24;49.83;;;22.77;;
29934;SDS011;19905;53.370;-6.314;2024-03-08T08:14:52;51.63;;;21.50;;
29934;SDS011;19905;53.370;-6.314;2024-03-08T08:17:20;50.13;;;21.52;;
29934;SDS011;19905;53.370;-6.314;2024-03-08T08:19:50;53.05;;;21.60;;
29934;SDS011;19905;53.370;-6.314;2024-03-08T08:22:19;57.10;;;22.33;;
29934;SDS011;19905;53.370;-6.314;2024-03-08T08:24:47;52.25;;;22.45;;
29934;SDS011;19905;53.370;-6.314;2024-03-08T08:27:16;48.63;;;22.70;;
29934;SDS011;19905;53.370;-6.314;2024-03-08T08:29:44;54.08;;;24.17;;
29934;SDS011;19905;53.370;-6.314;2024-03-08T08:32:13;56.83;;;22.60;;
29934;SDS011;19905;53.370;-6.314;2024-03-08T08:34:41;51.42;;;22.10;;
29934;SDS011;19905;53.370;-6.314;2024-03-08T08:37:13;49.00;;;22.83;;
29934;SDS011;19905;53.370;-6.314;2024-03-08T08:39:45;52.45;;;22.92;;
29934;SDS011;19905;53.370;-6.314;2024-03-08T08:42:14;45.65;;;21.58;;
29934;SDS011;19905;53.370;-6.314;2024-03-08T08:44:42;48.67;;;21.60;;
29934;SDS011;19905;53.370;-6.314;2024-03-08T08:47:10;45.92;;;20.38;;
29934;SDS011;19905;53.370;-6.314;2024-03-08T08:49:42;44.72;;;20.50;;
29934;SDS011;19905;53.370;-6.314;2024-03-08T08:52:13;45.60;;;20.60;;
29934;SDS011;19905;53.370;-6.314;2024-03-08T08:54:43;45.70;;;21.02;;
29934;SDS011;19905;53.370;-6.314;2024-03-08T08:57:16;49.15;;;22.58;;
29934;SDS011;19905;53.370;-6.314;2024-03-08T08:59:44;48.58;;;21.98;;
29934;SDS011;19905;53.370;-6.314;2024-03-08T09:02:15;51.28;;;23.73;;
29934;SDS011;19905;53.370;-6.314;2024-03-08T09:04:47;50.58;;;22.73;;
29934;SDS011;19905;53.370;-6.314;2024-03-08T09:07:19;52.97;;;23.40;;
29934;SDS011;19905;53.370;-6.314;2024-03-08T09:09:47;49.53;;;23.77;;
29934;SDS011;19905;53.370;-6.314;2024-03-08T09:12:15;54.78;;;23.77;;
29934;SDS011;19905;53.370;-6.314;2024-03-08T09:14:44;48.88;;;22.73;;
29934;SDS011;19905;53.370;-6.314;2024-03-08T09:17:13;53.92;;;24.88;;
29934;SDS011;19905;53.370;-6.314;2024-03-08T09:19:44;53.92;;;24.08;;
29934;SDS011;19905;53.370;-6.314;2024-03-08T09:22:12;51.53;;;24.23;;
29934;SDS011;19905;53.370;-6.314;2024-03-08T09:24:42;55.58;;;25.55;;
29934;SDS011;19905;53.370;-6.314;2024-03-08T09:27:11;54.65;;;24.77;;
29934;SDS011;19905;53.370;-6.314;2024-03-08T09:29:40;63.30;;;26.13;;
29934;SDS011;19905;53.370;-6.314;2024-03-08T09:32:10;56.03;;;26.75;;
29934;SDS011;19905;53.370;-6.314;2024-03-08T09:34:39;54.80;;;27.25;;
29934;SDS011;19905;53.370;-6.314;2024-03-08T09:37:07;54.15;;;25.75;;
29934;SDS011;19905;53.370;-6.314;2024-03-08T09:39:36;55.50;;;25.85;;
29934;SDS011;19905;53.370;-6.314;2024-03-08T09:42:06;55.53;;;27.20;;
29934;SDS011;19905;53.370;-6.314;2024-03-08T09:44:34;53.08;;;25.38;;
29934;SDS011;19905;53.370;-6.314;2024-03-08T09:47:03;58.17;;;27.48;;
29934;SDS011;19905;53.370;-6.314;2024-03-08T09:49:33;55.10;;;27.73;;
29934;SDS011;19905;53.370;-6.314;2024-03-08T09:52:05;60.55;;;28.55;;
29934;SDS011;19905;53.370;-6.314;2024-03-08T09:54:33;60.67;;;27.35;;
29934;SDS011;19905;53.370;-6.314;2024-03-08T09:57:03;60.95;;;29.13;;
29934;SDS011;19905;53.370;-6.314;2024-03-08T09:59:33;56.20;;;28.17;;
29934;SDS011;19905;53.370;-6.314;2024-03-08T10:02:15;55.22;;;26.90;;
29934;SDS011;19905;53.370;-6.314;2024-03-08T10:04:44;58.35;;;27.08;;
29934;SDS011;19905;53.370;-6.314;2024-03-08T10:07:14;58.13;;;27.33;;
29934;SDS011;19905;53.370;-6.314;2024-03-08T10:09:43;57.35;;;26.88;;
29934;SDS011;19905;53.370;-6.314;2024-03-08T10:12:17;57.85;;;26.35;;
29934;SDS011;19905;53.370;-6.314;2024-03-08T10:14:50;56.70;;;26.90;;
29934;SDS011;19905;53.370;-6.314;2024-03-08T10:17:19;58.85;;;28.02;;
29934;SDS011;19905;53.370;-6.314;2024-03-08T10:19:50;61.13;;;28.23;;
29934;SDS011;19905;53.370;-6.314;2024-03-08T10:22:20;58.95;;;26.48;;
29934;SDS011;19905;53.370;-6.314;2024-03-08T10:24:48;54.92;;;26.42;;
29934;SDS011;19905;53.370;-6.314;2024-03-08T10:27:17;57.08;;;26.85;;
29934;SDS011;19905;53.370;-6.314;2024-03-08T10:29:47;49.78;;;25.33;;
29934;SDS011;19905;53.370;-6.314;2024-03-08T10:32:16;53.45;;;25.40;;
29934;SDS011;19905;53.370;-6.314;2024-03-08T10:34:44;57.22;;;26.02;;
29934;SDS011;19905;53.370;-6.314;2024-03-08T10:37:15;58.85;;;27.42;;
29934;SDS011;19905;53.370;-6.314;2024-03-08T10:39:45;58.72;;;28.67;;
29934;SDS011;19905;53.370;-6.314;2024-03-08T10:42:19;59.15;;;28.20;;
29934;SDS011;19905;53.370;-6.314;2024-03-08T10:44:49;59.13;;;26.13;;
29934;SDS011;19905;53.370;-6.314;2024-03-08T10:47:25;56.28;;;27.38;;
29934;SDS011;19905;53.370;-6.314;2024-03-08T10:50:02;56.38;;;26.98;;
29934;SDS011;19905;53.370;-6.314;2024-03-08T10:52:35;54.63;;;26.73;;
29934;SDS011;19905;53.370;-6.314;2024-03-08T10:55:04;56.92;;;26.55;;
29934;SDS011;19905;53.370;-6.314;2024-03-08T10:57:39;58.97;;;26.38;;
29934;SDS011;19905;53.370;-6.314;2024-03-08T11:00:09;52.78;;;26.23;;
29934;SDS011;19905;53.370;-6.314;2024-03-08T11:02:40;55.22;;;26.52;;
29934;SDS011;19905;53.370;-6.314;2024-03-08T11:05:11;55.25;;;28.17;;
29934;SDS011;19905;53.370;-6.314;2024-03-08T11:07:43;62.53;;;27.55;;
29934;SDS011;19905;53.370;-6.314;2024-03-08T11:10:18;59.00;;;29.00;;
29934;SDS011;19905;53.370;-6.314;2024-03-08T11:12:47;60.30;;;27.83;;
29934;SDS011;19905;53.370;-6.314;2024-03-08T11:15:16;60.83;;;26.58;;
29934;SDS011;19905;53.370;-6.314;2024-03-08T11:17:47;56.47;;;27.23;;
29934;SDS011;19905;53.370;-6.314;2024-03-08T11:20:16;56.63;;;27.30;;
29934;SDS011;19905;53.370;-6.314;2024-03-08T11:22:49;54.75;;;26.70;;
29934;SDS011;19905;53.370;-6.314;2024-03-08T11:25:31;55.17;;;26.15;;
29934;SDS011;19905;53.370;-6.314;2024-03-08T11:28:13;57.95;;;27.80;;
29934;SDS011;19905;53.370;-6.314;2024-03-08T11:30:46;57.50;;;27.70;;
29934;SDS011;19905;53.370;-6.314;2024-03-08T11:33:18;56.92;;;26.70;;
29934;SDS011;19905;53.370;-6.314;2024-03-08T11:35:46;55.30;;;27.27;;
29934;SDS011;19905;53.370;-6.314;2024-03-08T11:38:15;54.90;;;26.67;;
29934;SDS011;19905;53.370;-6.314;2024-03-08T11:40:45;53.65;;;26.60;;
29934;SDS011;19905;53.370;-6.314;2024-03-08T11:43:16;53.63;;;26.73;;
29934;SDS011;19905;53.370;-6.314;2024-03-08T11:45:45;55.88;;;25.95;;
29934;SDS011;19905;53.370;-6.314;2024-03-08T11:48:13;53.25;;;26.42;;
29934;SDS011;19905;53.370;-6.314;2024-03-08T11:50:43;54.88;;;27.50;;
29934;SDS011;19905;53.370;-6.314;2024-03-08T11:53:11;54.65;;;25.98;;
29934;SDS011;19905;53.370;-6.314;2024-03-08T11:55:40;61.40;;;28.17;;
29934;SDS011;19905;53.370;-6.314;2024-03-08T11:58:09;56.45;;;27.35;;
29934;SDS011;19905;53.370;-6.314;2024-03-08T12:00:37;51.03;;;24.60;;
29934;SDS011;19905;53.370;-6.314;2024-03-08T12:03:06;52.58;;;26.40;;
29934;SDS011;19905;53.370;-6.314;2024-03-08T12:05:36;56.17;;;26.02;;
29934;SDS011;19905;53.370;-6.314;2024-03-08T12:08:06;52.00;;;25.05;;
29934;SDS011;19905;53.370;-6.314;2024-03-08T12:10:40;55.28;;;25.75;;
29934;SDS011;19905;53.370;-6.314;2024-03-08T12:13:08;54.88;;;25.70;;
29934;SDS011;19905;53.370;-6.314;2024-03-08T12:15:40;56.30;;;27.88;;
29934;SDS011;19905;53.370;-6.314;2024-03-08T12:18:10;52.28;;;26.63;;
29934;SDS011;19905;53.370;-6.314;2024-03-08T12:20:40;52.58;;;25.50;;
29934;SDS011;19905;53.370;-6.314;2024-03-08T12:23:15;52.67;;;25.98;;
29934;SDS011;19905;53.370;-6.314;2024-03-08T12:25:43;52.47;;;24.90;;
29934;SDS011;19905;53.370;-6.314;2024-03-08T12:28:12;52.88;;;26.10;;
29934;SDS011;19905;53.370;-6.314;2024-03-08T12:30:46;57.40;;;26.58;;
29934;SDS011;19905;53.370;-6.314;2024-03-08T12:33:15;50.67;;;25.65;;
29934;SDS011;19905;53.370;-6.314;2024-03-08T12:35:50;52.97;;;25.08;;
29934;SDS011;19905;53.370;-6.314;2024-03-08T12:38:23;53.13;;;25.27;;
29934;SDS011;19905;53.370;-6.314;2024-03-08T12:40:55;57.78;;;25.23;;
29934;SDS011;19905;53.370;-6.314;2024-03-08T12:43:24;60.05;;;25.80;;
29934;SDS011;19905;53.370;-6.314;2024-03-08T12:45:52;54.63;;;24.92;;
29934;SDS011;19905;53.370;-6.314;2024-03-08T12:48:21;49.92;;;24.67;;
29934;SDS011;19905;53.370;-6.314;2024-03-08T12:50:50;55.00;;;25.20;;
29934;SDS011;19905;53.370;-6.314;2024-03-08T12:53:18;57.58;;;26.73;;
29934;SDS011;19905;53.370;-6.314;2024-03-08T12:55:48;54.80;;;26.00;;
29934;SDS011;19905;53.370;-6.314;2024-03-08T12:58:17;53.67;;;25.08;;
29934;SDS011;19905;53.370;-6.314;2024-03-08T13:00:47;54.08;;;24.95;;
29934;SDS011;19905;53.370;-6.314;2024-03-08T13:03:19;54.55;;;26.58;;
29934;SDS011;19905;53.370;-6.314;2024-03-08T13:05:49;51.53;;;23.02;;
29934;SDS011;19905;53.370;-6.314;2024-03-08T13:08:19;56.95;;;25.02;;
29934;SDS011;19905;53.370;-6.314;2024-03-08T13:10:50;52.47;;;24.80;;
29934;SDS011;19905;53.370;-6.314;2024-03-08T13:13:19;53.72;;;24.50;;
29934;SDS011;19905;53.370;-6.314;2024-03-08T13:15:47;52.78;;;24.73;;
29934;SDS011;19905;53.370;-6.314;2024-03-08T13:18:16;55.58;;;25.33;;
29934;SDS011;19905;53.370;-6.314;2024-03-08T13:20:44;49.70;;;24.20;;
29934;SDS011;19905;53.370;-6.314;2024-03-08T13:23:16;57.83;;;25.98;;
29934;SDS011;19905;53.370;-6.314;2024-03-08T13:25:44;58.92;;;25.55;;
29934;SDS011;19905;53.370;-6.314;2024-03-08T13:28:16;52.75;;;25.00;;
29934;SDS011;19905;53.370;-6.314;2024-03-08T13:30:50;55.20;;;25.63;;
29934;SDS011;19905;53.370;-6.314;2024-03-08T13:33:25;50.35;;;24.80;;
29934;SDS011;19905;53.370;-6.314;2024-03-08T13:35:54;49.90;;;23.38;;
29934;SDS011;19905;53.370;-6.314;2024-03-08T13:38:31;53.08;;;25.70;;
29934;SDS011;19905;53.370;-6.314;2024-03-08T13:41:00;49.10;;;24.40;;
29934;SDS011;19905;53.370;-6.314;2024-03-08T13:43:31;55.30;;;25.85;;
29934;SDS011;19905;53.370;-6.314;2024-03-08T13:46:01;55.33;;;25.10;;
29934;SDS011;19905;53.370;-6.314;2024-03-08T13:48:30;52.45;;;24.08;;
29934;SDS011;19905;53.370;-6.314;2024-03-08T13:50:59;58.05;;;26.15;;
29934;SDS011;19905;53.370;-6.314;2024-03-08T13:53:27;51.45;;;25.83;;
29934;SDS011;19905;53.370;-6.314;2024-03-08T13:55:56;49.33;;;25.73;;
29934;SDS011;19905;53.370;-6.314;2024-03-08T13:58:24;54.33;;;24.90;;
29934;SDS011;19905;53.370;-6.314;2024-03-08T14:00:54;55.33;;;24.67;;
29934;SDS011;19905;53.370;-6.314;2024-03-08T14:03:23;55.97;;;26.17;;
29934;SDS011;19905;53.370;-6.314;2024-03-08T14:05:51;52.55;;;24.65;;
29934;SDS011;19905;53.370;-6.314;2024-03-08T14:08:22;49.75;;;23.98;;
29934;SDS011;19905;53.370;-6.314;2024-03-08T14:10:51;59.22;;;25.10;;
29934;SDS011;19905;53.370;-6.314;2024-03-08T14:13:20;50.15;;;24.63;;
29934;SDS011;19905;53.370;-6.314;2024-03-08T14:15:51;60.90;;;25.45;;
29934;SDS011;19905;53.370;-6.314;2024-03-08T14:18:21;52.28;;;24.23;;
29934;SDS011;19905;53.370;-6.314;2024-03-08T14:20:49;52.28;;;24.77;;
29934;SDS011;19905;53.370;-6.314;2024-03-08T14:23:18;54.20;;;24.55;;